Time;durP1;ratioP1;P1;durP2;ratioP2;P2;SDS_P1;SDS_P2;PMS_P1;PMS_P2;Temp;Humidity;BMP_temperature;BMP_pressure;BME280_temperature;BME280_humidity;BME280_pressure;Samples;Min_cycle;Max_cycle;Signal;HPM_P1;HPM_P2
2022/12/04 00:01:14;;;;;;;94.25;49.33;;;;;;;0.57;88.97;101448.13;5050922;28;20409;-61
2022/12/04 00:03:41;;;;;;;97.70;48.30;;;;;;;0.56;88.92;101453.31;5053127;28;20060;-62
2022/12/04 00:06:14;;;;;;;88.03;45.38;;;;;;;0.52;88.92;101457.66;5055626;28;20412;-63
2022/12/04 00:08:42;;;;;;;89.25;46.58;;;;;;;0.48;89.41;101461.97;5054309;28;20049;-62
2022/12/04 00:11:12;;;;;;;93.10;46.05;;;;;;;0.44;89.40;101460.25;5041840;28;20404;-61
2022/12/04 00:13:40;;;;;;;92.38;46.42;;;;;;;0.49;89.87;101465.44;5032687;28;20053;-63
2022/12/04 00:16:11;;;;;;;90.85;47.67;;;;;;;0.50;89.71;101472.34;5046280;28;20051;-63
2022/12/04 00:18:38;;;;;;;93.47;48.45;;;;;;;0.57;89.24;101475.75;5050316;28;20045;-63
2022/12/04 00:21:08;;;;;;;94.65;48.08;;;;;;;0.56;89.30;101474.91;5042053;28;20048;-63
2022/12/04 00:23:37;;;;;;;89.28;46.13;;;;;;;0.61;89.08;101467.13;5049616;28;20067;-63
2022/12/04 00:26:10;;;;;;;97.78;48.00;;;;;;;0.62;89.20;101463.66;5050484;28;20049;-61
2022/12/04 00:28:37;;;;;;;93.38;48.42;;;;;;;0.60;89.01;101465.41;5050224;28;20049;-60
2022/12/04 00:31:07;;;;;;;94.05;47.78;;;;;;;0.57;89.18;101460.22;5049645;28;20045;-64
2022/12/04 00:33:34;;;;;;;94.78;49.67;;;;;;;0.57;89.51;101465.41;5048334;28;20052;-64
2022/12/04 00:36:05;;;;;;;99.72;50.55;;;;;;;0.58;89.60;101456.75;5049176;28;20061;-61
2022/12/04 00:38:33;;;;;;;94.68;47.08;;;;;;;0.57;89.32;101452.44;5045651;28;20045;-63
2022/12/04 00:41:00;;;;;;;94.07;46.70;;;;;;;0.53;89.86;101446.41;5048883;28;20049;-62
2022/12/04 00:43:28;;;;;;;91.28;48.25;;;;;;;0.47;90.08;101449.91;5050295;28;20420;-63
2022/12/04 00:45:55;;;;;;;92.88;46.80;;;;;;;0.50;90.00;101446.44;5054038;28;20512;-62
2022/12/04 00:48:23;;;;;;;95.65;50.05;;;;;;;0.60;89.62;101453.31;5050499;28;20059;-64
2022/12/04 00:50:51;;;;;;;93.25;46.47;;;;;;;0.61;89.61;101447.25;5045428;28;20075;-63
2022/12/04 00:53:18;;;;;;;97.25;48.70;;;;;;;0.63;89.22;101455.00;5049127;28;20055;-64
2022/12/04 00:55:46;;;;;;;95.72;48.20;;;;;;;0.61;89.45;101461.94;5032125;28;20049;-63
2022/12/04 00:58:13;;;;;;;91.43;47.42;;;;;;;0.62;89.50;101458.47;5032417;28;20041;-63
2022/12/04 01:00:41;;;;;;;93.75;48.92;;;;;;;0.67;89.04;101454.97;5048826;28;20056;-63
2022/12/04 01:03:09;;;;;;;105.93;49.88;;;;;;;0.62;89.87;101453.28;5049416;28;20420;-63
2022/12/04 01:05:42;;;;;;;95.68;49.53;;;;;;;0.57;90.40;101448.13;5046216;28;20186;-61
2022/12/04 01:08:11;;;;;;;95.15;48.55;;;;;;;0.46;90.87;101453.38;5041649;28;20570;-61
2022/12/04 01:10:40;;;;;;;97.47;48.38;;;;;;;0.43;90.84;101448.19;5047836;28;20075;-62
2022/12/04 01:13:08;;;;;;;107.57;52.10;;;;;;;0.49;90.70;101449.88;5040739;28;20045;-64
2022/12/04 01:15:39;;;;;;;93.10;47.67;;;;;;;0.54;90.71;101457.63;5047967;28;20074;-63
2022/12/04 01:18:06;;;;;;;94.97;48.30;;;;;;;0.60;90.30;101452.44;5049717;28;20136;-64
2022/12/04 01:20:34;;;;;;;93.85;46.88;;;;;;;0.61;90.34;101454.16;5049329;28;20057;-63
2022/12/04 01:23:01;;;;;;;98.43;50.70;;;;;;;0.61;90.57;101452.44;5046663;28;20045;-62
2022/12/04 01:25:28;;;;;;;100.47;51.40;;;;;;;0.56;90.45;101449.00;5030916;28;20060;-64
2022/12/04 01:27:56;;;;;;;106.63;53.13;;;;;;;0.50;91.15;101452.50;5047344;28;20059;-63
2022/12/04 01:30:23;;;;;;;102.20;50.35;;;;;;;0.45;91.52;101454.25;5047818;28;20059;-63
2022/12/04 01:32:50;;;;;;;99.40;49.80;;;;;;;0.43;91.75;101449.91;5048989;28;20059;-62
2022/12/04 01:35:18;;;;;;;104.70;50.65;;;;;;;0.50;91.37;101449.03;5048929;28;20057;-64
2022/12/04 01:37:45;;;;;;;109.32;52.70;;;;;;;0.44;92.20;101444.72;5048987;28;20207;-61
2022/12/04 01:40:14;;;;;;;104.90;51.38;;;;;;;0.47;91.99;101438.69;5047245;28;20052;-63
2022/12/04 01:42:41;;;;;;;108.47;51.95;;;;;;;0.54;91.47;101439.50;5048870;28;20414;-62
2022/12/04 01:45:29;;;;;;;103.07;51.13;;;;;;;0.50;91.82;101436.94;5041765;28;20310;-63
2022/12/04 01:48:08;;;;;;;98.50;50.45;;;;;;;0.48;91.76;101435.22;5047036;28;20053;-64
2022/12/04 01:50:36;;;;;;;108.55;52.88;;;;;;;0.45;92.20;101430.94;5047126;28;20047;-64
2022/12/04 01:53:03;;;;;;;110.70;53.17;;;;;;;0.47;91.91;101439.53;5031409;28;20079;-63
2022/12/04 01:55:33;;;;;;;102.30;50.75;;;;;;;0.48;92.21;101438.66;5044070;28;20057;-64
2022/12/04 01:58:01;;;;;;;99.97;50.30;;;;;;;0.57;91.68;101436.91;5031107;28;20417;-61
2022/12/04 02:00:28;;;;;;;100.03;51.13;;;;;;;0.65;91.31;101432.53;5049269;28;20408;-62
2022/12/04 02:02:55;;;;;;;104.32;50.45;;;;;;;0.66;91.32;101429.09;5048511;28;20830;-64
2022/12/04 02:05:23;;;;;;;103.57;53.53;;;;;;;0.66;91.31;101423.91;5049904;28;20049;-62
2022/12/04 02:07:56;;;;;;;101.53;50.25;;;;;;;0.65;90.97;101429.97;5049418;28;20056;-62
2022/12/04 02:10:49;;;;;;;97.85;50.90;;;;;;;0.65;91.16;101422.19;5027058;28;20513;-63
2022/12/04 02:13:22;;;;;;;105.70;50.30;;;;;;;0.70;90.86;101430.78;5042074;28;20049;-64
2022/12/04 02:16:03;;;;;;;104.40;52.72;;;;;;;0.67;90.93;101426.47;5046653;28;20049;-63
2022/12/04 02:18:50;;;;;;;98.13;49.20;;;;;;;0.66;91.16;101423.91;5031557;28;20055;-63
2022/12/04 02:21:23;;;;;;;105.60;51.45;;;;;;;0.68;91.37;101415.25;5028770;28;20060;-65
2022/12/04 02:24:20;;;;;;;114.85;54.70;;;;;;;0.65;91.96;101411.81;5048206;28;20738;-64
2022/12/04 02:26:54;;;;;;;112.00;51.70;;;;;;;0.56;92.69;101415.31;5039697;28;20048;-64
2022/12/04 02:29:28;;;;;;;103.63;49.78;;;;;;;0.52;92.76;101417.94;5030682;28;20051;-64
2022/12/04 02:32:27;;;;;;;109.65;53.60;;;;;;;0.57;92.50;101416.19;5048106;28;20065;-66
2022/12/04 02:35:05;;;;;;;107.70;53.20;;;;;;;0.56;92.67;101410.13;5028143;28;20052;-64
2022/12/04 02:37:43;;;;;;;106.10;51.97;;;;;;;0.52;92.59;101405.84;5030369;28;20059;-63
2022/12/04 02:40:20;;;;;;;107.55;52.95;;;;;;;0.58;92.93;101408.38;5031009;28;20041;-63
2022/12/04 02:43:06;;;;;;;105.68;51.13;;;;;;;0.65;92.67;101414.41;5030847;28;20053;-64
2022/12/04 02:45:39;;;;;;;103.00;51.05;;;;;;;0.71;92.10;101406.59;5042022;28;20049;-64
2022/12/04 02:48:07;;;;;;;116.88;54.78;;;;;;;0.65;92.36;101407.50;5030510;28;20215;-64
2022/12/04 02:50:36;;;;;;;107.78;51.40;;;;;;;0.63;92.67;101398.00;5028282;28;20071;-64
2022/12/04 02:53:08;;;;;;;103.18;50.30;;;;;;;0.64;92.22;101405.78;5038943;28;20048;-64
2022/12/04 02:55:43;;;;;;;109.38;51.72;;;;;;;0.62;93.05;101401.47;5029598;28;20068;-64
2022/12/04 02:58:17;;;;;;;112.15;54.70;;;;;;;0.56;93.91;101396.31;5028728;28;20049;-63
2022/12/04 03:00:46;;;;;;;105.83;51.23;;;;;;;0.60;93.03;101385.94;5030907;28;20057;-64
2022/12/04 03:03:18;;;;;;;111.95;52.72;;;;;;;0.59;92.94;101386.81;5028720;28;20154;-64
2022/12/04 03:05:59;;;;;;;101.53;51.00;;;;;;;0.66;92.92;101382.44;5049639;28;20517;-64
2022/12/04 03:08:41;;;;;;;106.55;52.70;;;;;;;0.64;93.15;101381.59;5032051;28;20440;-64
2022/12/04 03:11:08;;;;;;;109.40;51.85;;;;;;;0.63;93.25;101379.84;5053395;28;20784;-63
2022/12/04 03:13:41;;;;;;;109.28;53.67;;;;;;;0.65;92.98;101372.94;5043667;28;20056;-64
2022/12/04 03:16:15;;;;;;;111.10;52.67;;;;;;;0.59;93.30;101373.00;5047365;28;20049;-64
2022/12/04 03:18:48;;;;;;;112.10;53.75;;;;;;;0.61;92.76;101371.25;5026746;28;20061;-62
2022/12/04 03:21:18;;;;;;;106.32;50.70;;;;;;;0.66;92.86;101372.94;5025716;28;20405;-63
2022/12/04 03:23:49;;;;;;;105.53;51.33;;;;;;;0.71;92.56;101378.09;5027485;28;20053;-64
2022/12/04 03:26:22;;;;;;;110.13;53.47;;;;;;;0.66;93.25;101380.72;5032229;28;20454;-63
2022/12/04 03:28:57;;;;;;;105.32;51.65;;;;;;;0.68;92.67;101373.81;5049503;28;20055;-63
2022/12/04 03:31:39;;;;;;;107.35;51.67;;;;;;;0.68;92.59;101373.81;5033977;28;20053;-63
2022/12/04 03:34:07;;;;;;;105.05;50.92;;;;;;;0.71;92.35;101371.16;5051512;28;20049;-63
2022/12/04 03:36:48;;;;;;;100.78;49.53;;;;;;;0.70;92.73;101373.78;5036711;28;20056;-63
2022/12/04 03:39:26;;;;;;;100.32;48.75;;;;;;;0.75;92.14;101380.66;5031583;28;20043;-63
2022/12/04 03:41:56;;;;;;;102.30;49.20;;;;;;;0.79;92.09;101383.22;5050580;28;20053;-63
2022/12/04 03:44:34;;;;;;;104.72;50.60;;;;;;;0.81;91.80;101389.25;5041992;28;20412;-63
2022/12/04 03:47:35;;;;;;;103.97;49.47;;;;;;;0.84;91.34;101395.28;5031134;28;20045;-64
2022/12/04 03:50:15;;;;;;;100.93;47.90;;;;;;;0.76;92.22;101389.28;5050256;28;20045;-63
2022/12/04 03:53:03;;;;;;;103.03;50.33;;;;;;;0.77;92.22;101385.84;5025520;28;20049;-63
2022/12/04 03:55:41;;;;;;;94.18;48.10;;;;;;;0.82;91.86;101389.25;5044222;28;20049;-62
2022/12/04 03:58:13;;;;;;;92.72;46.97;;;;;;;0.85;91.59;101391.81;5033256;28;20045;-63
2022/12/04 04:00:42;;;;;;;102.80;51.08;;;;;;;0.87;91.52;101390.09;5027810;28;20051;-63
2022/12/04 04:03:14;;;;;;;101.35;49.17;;;;;;;0.86;91.48;101392.69;5030708;28;20075;-64
2022/12/04 04:05:46;;;;;;;100.97;48.58;;;;;;;0.87;91.40;101381.44;5046812;28;20045;-63
2022/12/04 04:08:29;;;;;;;98.55;47.40;;;;;;;0.88;91.06;101386.63;5036976;28;20045;-64
2022/12/04 04:11:10;;;;;;;99.53;50.70;;;;;;;0.91;91.03;101375.38;5033439;28;20049;-64
2022/12/04 04:25:03;;;;;;;99.13;50.92;;;;;;;0.75;92.44;101351.28;5034528;28;20059;-64
2022/12/04 04:27:31;;;;;;;96.40;48.47;;;;;;;0.78;92.13;101353.84;5031919;28;20053;-64
2022/12/04 04:29:58;;;;;;;99.55;49.45;;;;;;;0.70;93.36;101361.69;5049986;28;20056;-64
2022/12/04 04:32:40;;;;;;;95.82;49.17;;;;;;;0.74;93.22;101346.97;5050268;28;20053;-65
2022/12/04 04:35:08;;;;;;;99.32;50.58;;;;;;;0.72;93.05;101354.78;5047754;28;20053;-65
2022/12/04 04:38:02;;;;;;;95.53;48.88;;;;;;;0.73;93.26;101351.31;5046172;28;20064;-64
2022/12/04 04:40:44;;;;;;;96.95;47.70;;;;;;;0.71;93.52;101355.63;5047702;28;20048;-64
2022/12/04 04:43:16;;;;;;;92.10;45.45;;;;;;;0.72;93.25;101356.47;5043384;28;20067;-63
2022/12/04 04:45:51;;;;;;;91.28;45.45;;;;;;;0.78;93.25;101345.22;5014725;28;20057;-63
2022/12/04 04:48:35;;;;;;;96.43;47.90;;;;;;;0.86;92.69;101357.25;5050647;28;20412;-63
2022/12/04 04:51:03;;;;;;;96.10;49.42;;;;;;;0.83;92.74;101364.19;5037755;28;20195;-62
2022/12/04 04:53:36;;;;;;;95.82;46.72;;;;;;;0.83;93.12;101380.59;5049955;28;20045;-63
2022/12/04 04:56:05;;;;;;;95.72;45.47;;;;;;;0.82;92.68;101373.72;5032495;28;20053;-63
2022/12/04 04:58:32;;;;;;;99.75;49.78;;;;;;;0.79;93.82;101365.09;5033295;28;20509;-63
2022/12/04 05:01:04;;;;;;;93.75;48.40;;;;;;;0.73;93.86;101364.25;5057334;28;20124;-64
2022/12/04 05:03:35;;;;;;;86.53;44.53;;;;;;;0.78;93.56;101371.16;5052038;28;20097;-64
2022/12/04 05:06:02;;;;;;;91.15;47.47;;;;;;;0.84;93.24;101364.16;5059178;28;20112;-63
2022/12/04 05:08:29;;;;;;;100.35;51.10;;;;;;;0.82;93.18;101373.72;5056990;28;20108;-61
2022/12/04 05:10:57;;;;;;;92.60;46.42;;;;;;;0.88;92.98;101370.19;5047538;28;20051;-62
2022/12/04 05:13:24;;;;;;;95.20;46.40;;;;;;;0.94;92.37;101373.59;5047575;28;20063;-62
2022/12/04 05:16:03;;;;;;;96.90;47.25;;;;;;;0.90;92.73;101371.94;5049033;28;20412;-61
2022/12/04 05:18:31;;;;;;;89.57;46.58;;;;;;;0.93;92.52;101369.28;5048958;28;20059;-63
2022/12/04 05:20:58;;;;;;;92.78;46.40;;;;;;;0.89;92.57;101366.72;5046761;28;20045;-61
2022/12/04 05:23:26;;;;;;;92.50;47.08;;;;;;;0.91;92.47;101363.28;5048457;28;20049;-63
2022/12/04 05:26:03;;;;;;;88.20;46.03;;;;;;;0.96;92.45;101371.00;5048340;28;20041;-63
2022/12/04 05:28:31;;;;;;;92.43;46.72;;;;;;;0.96;92.46;101368.41;5049359;28;20063;-61
2022/12/04 05:31:00;;;;;;;90.07;45.92;;;;;;;1.01;92.07;101375.28;5031289;28;20048;-62
2022/12/04 05:33:29;;;;;;;89.60;46.95;;;;;;;0.95;92.77;101362.38;5046471;28;20049;-61
2022/12/04 05:35:57;;;;;;;104.28;49.95;;;;;;;0.88;93.68;101352.91;5045445;28;20052;-62
2022/12/04 05:38:24;;;;;;;95.25;48.97;;;;;;;0.85;93.83;101362.44;5042626;28;20404;-63
2022/12/04 05:40:52;;;;;;;94.95;47.80;;;;;;;0.84;93.69;101359.00;5029665;28;20497;-60
2022/12/04 05:43:19;;;;;;;95.95;48.53;;;;;;;0.83;93.63;101362.47;5023100;28;20053;-64
2022/12/04 05:45:46;;;;;;;89.97;46.75;;;;;;;0.86;93.75;101359.00;5024934;28;20192;-61
2022/12/04 05:48:14;;;;;;;92.47;48.22;;;;;;;0.79;94.36;101355.56;5041265;28;20045;-62
2022/12/04 05:50:41;;;;;;;99.95;48.35;;;;;;;0.77;94.65;101367.69;5046320;28;20037;-62
2022/12/04 05:53:08;;;;;;;94.22;48.33;;;;;;;0.80;94.56;101369.38;5046604;28;20057;-63
2022/12/04 05:55:36;;;;;;;88.95;44.75;;;;;;;0.83;94.73;101362.47;5039266;28;20050;-64
2022/12/04 05:58:04;;;;;;;91.50;47.17;;;;;;;0.84;94.67;101359.00;5046257;28;20049;-63
2022/12/04 06:00:31;;;;;;;92.63;46.78;;;;;;;0.83;94.57;101359.88;5041951;28;20501;-62
2022/12/04 06:02:58;;;;;;;91.72;45.67;;;;;;;0.87;94.43;101363.31;5046996;28;20040;-63
2022/12/04 06:05:26;;;;;;;96.80;47.97;;;;;;;0.88;94.43;101355.50;5042442;28;20053;-61
2022/12/04 06:07:53;;;;;;;89.38;46.58;;;;;;;0.87;94.37;101358.13;5024024;28;20048;-64
2022/12/04 06:10:21;;;;;;;93.32;46.03;;;;;;;0.92;94.01;101358.94;5039586;28;20052;-62
2022/12/04 06:12:48;;;;;;;91.60;48.72;;;;;;;0.88;94.49;101360.69;5023626;28;20060;-62
2022/12/04 06:15:15;;;;;;;98.45;47.45;;;;;;;0.86;94.36;101366.78;5043097;28;20059;-64
2022/12/04 06:17:43;;;;;;;90.53;45.80;;;;;;;0.89;94.44;101359.81;5056937;28;20196;-63
2022/12/04 06:20:10;;;;;;;95.70;46.95;;;;;;;0.92;94.38;101365.00;5044510;28;20064;-62
2022/12/04 06:22:38;;;;;;;86.80;45.90;;;;;;;0.99;94.20;101363.19;5040782;28;20053;-62
2022/12/04 06:25:06;;;;;;;86.93;47.33;;;;;;;1.02;93.77;101355.41;5042443;28;20466;-62
2022/12/04 06:27:33;;;;;;;92.18;47.17;;;;;;;1.04;93.98;101360.56;5048107;28;20056;-62
2022/12/04 06:30:01;;;;;;;86.53;47.50;;;;;;;1.02;93.67;101365.78;5037185;28;20056;-63
2022/12/04 06:32:29;;;;;;;90.00;46.05;;;;;;;1.05;93.25;101354.53;5030292;28;20102;-62
2022/12/04 06:34:56;;;;;;;88.95;45.60;;;;;;;1.09;93.05;101353.63;5028735;28;20069;-63
2022/12/04 06:37:24;;;;;;;97.13;47.53;;;;;;;1.10;92.96;101351.03;5050605;28;20117;-62
2022/12/04 06:39:51;;;;;;;85.60;43.60;;;;;;;1.08;93.17;101351.88;5050173;28;20061;-61
2022/12/04 06:42:19;;;;;;;93.63;48.10;;;;;;;1.08;93.37;101354.47;5037037;28;20068;-61
2022/12/04 06:44:46;;;;;;;88.28;46.90;;;;;;;1.07;93.31;101356.22;5027459;28;20045;-65
2022/12/04 06:47:13;;;;;;;95.57;46.88;;;;;;;1.04;93.87;101355.38;5022629;28;20396;-63
2022/12/04 06:49:41;;;;;;;82.07;45.20;;;;;;;1.01;94.06;101359.72;5039489;28;20064;-62
2022/12/04 06:52:08;;;;;;;90.97;46.58;;;;;;;1.09;93.39;101362.28;5038291;28;20056;-63
2022/12/04 06:54:36;;;;;;;84.70;44.80;;;;;;;1.12;92.93;101356.19;5043381;28;20045;-63
2022/12/04 06:57:03;;;;;;;87.53;45.63;;;;;;;1.14;92.97;101365.69;5045188;28;20080;-63
2022/12/04 06:59:31;;;;;;;91.03;44.83;;;;;;;1.14;92.94;101357.03;5056388;28;20113;-63
2022/12/04 07:01:58;;;;;;;103.43;48.00;;;;;;;1.12;93.30;101358.78;5060450;28;20101;-63
2022/12/04 07:04:26;;;;;;;93.30;45.75;;;;;;;1.06;93.38;101366.63;5058398;28;20128;-63
2022/12/04 07:06:53;;;;;;;102.45;47.65;;;;;;;1.04;93.81;101363.16;5058758;28;20105;-60
2022/12/04 07:09:22;;;;;;;85.57;46.33;;;;;;;1.07;93.55;101364.00;5060267;28;20144;-64
2022/12/04 07:11:49;;;;;;;94.80;47.42;;;;;;;1.12;93.77;101361.38;5040439;28;20049;-63
2022/12/04 07:14:16;;;;;;;98.63;47.88;;;;;;;1.08;93.89;101357.06;5058869;28;20127;-63
2022/12/04 07:16:44;;;;;;;93.72;45.67;;;;;;;1.08;93.76;101359.66;5066134;28;20116;-63
2022/12/04 07:19:12;;;;;;;86.85;44.60;;;;;;;1.05;94.22;101360.56;5065164;28;20181;-62
2022/12/04 07:21:40;;;;;;;93.75;44.20;;;;;;;1.10;93.72;101357.94;5061709;28;20064;-62
2022/12/04 07:24:14;;;;;;;88.68;45.10;;;;;;;1.10;93.78;101357.94;5067779;28;20081;-62
2022/12/04 07:26:42;;;;;;;89.70;45.00;;;;;;;1.08;94.03;101354.47;5069572;28;20080;-63
2022/12/04 07:29:09;;;;;;;100.80;49.33;;;;;;;1.14;93.95;101360.50;5049941;28;20076;-63
2022/12/04 07:31:37;;;;;;;89.03;47.10;;;;;;;1.15;93.74;101357.03;5067835;28;20084;-63
2022/12/04 07:34:04;;;;;;;90.88;45.60;;;;;;;1.16;93.49;101355.28;5069120;28;20064;-62
2022/12/04 07:36:32;;;;;;;97.15;47.03;;;;;;;1.13;93.73;101360.53;5070180;28;20060;-62
2022/12/04 07:38:59;;;;;;;84.75;43.85;;;;;;;1.16;93.72;101363.91;5068151;28;20494;-63
2022/12/04 07:41:26;;;;;;;93.40;47.42;;;;;;;1.18;93.67;101362.19;5069180;28;20079;-63
2022/12/04 07:43:54;;;;;;;87.95;46.35;;;;;;;1.12;94.56;101369.16;5068162;28;20068;-63
2022/12/04 07:46:26;;;;;;;91.07;46.25;;;;;;;1.12;94.35;101367.41;5069454;28;20068;-63
2022/12/04 07:48:55;;;;;;;92.28;47.30;;;;;;;1.15;94.29;101367.41;5058048;28;20141;-61
2022/12/04 07:51:25;;;;;;;85.75;43.53;;;;;;;1.22;93.80;101371.66;5056424;28;20053;-63
2022/12/04 07:53:53;;;;;;;85.88;43.85;;;;;;;1.27;93.44;101376.81;5053275;28;20051;-63
2022/12/04 07:56:21;;;;;;;89.93;44.78;;;;;;;1.30;93.41;101386.28;5044043;28;20049;-63
2022/12/04 07:58:48;;;;;;;92.32;46.45;;;;;;;1.23;93.80;101372.53;5055367;28;20053;-63
2022/12/04 08:01:21;;;;;;;85.88;42.55;;;;;;;1.23;93.80;101375.97;5055213;28;20580;-63
2022/12/04 08:03:51;;;;;;;82.78;43.58;;;;;;;1.30;93.38;101381.97;5047438;28;20392;-62
2022/12/04 08:06:20;;;;;;;96.93;47.58;;;;;;;1.27;93.34;101379.41;5047856;28;20059;-62
2022/12/04 08:08:48;;;;;;;87.20;43.80;;;;;;;1.31;93.54;101383.69;5050639;28;20053;-63
2022/12/04 08:11:18;;;;;;;88.18;45.40;;;;;;;1.34;93.10;101378.47;5035103;28;20107;-63
2022/12/04 08:13:47;;;;;;;99.35;45.53;;;;;;;1.29;93.73;101385.44;5051998;28;20444;-64
2022/12/04 08:16:15;;;;;;;91.32;44.22;;;;;;;1.29;93.77;101388.03;5034084;28;20125;-64
2022/12/04 08:18:47;;;;;;;89.75;42.92;;;;;;;1.32;93.93;101394.94;5049587;28;20059;-58
2022/12/04 08:21:19;;;;;;;91.22;44.95;;;;;;;1.32;93.88;101382.81;5054323;28;20374;-61
2022/12/04 08:23:48;;;;;;;88.75;43.40;;;;;;;1.37;93.72;101378.44;5054964;28;20073;-61
2022/12/04 08:26:18;;;;;;;91.88;45.60;;;;;;;1.41;93.34;101382.75;5053778;28;20114;-60
2022/12/04 08:28:46;;;;;;;86.85;45.10;;;;;;;1.39;93.67;101381.03;5052858;28;20049;-61
2022/12/04 08:31:17;;;;;;;89.80;41.40;;;;;;;1.37;93.72;101381.03;5051993;28;20517;-63
2022/12/04 08:33:46;;;;;;;82.10;42.15;;;;;;;1.41;93.62;101381.88;5047371;28;20049;-63
2022/12/04 08:36:16;;;;;;;87.90;44.80;;;;;;;1.43;93.38;101386.16;5049074;28;20060;-63
2022/12/04 08:38:44;;;;;;;86.82;44.63;;;;;;;1.42;93.45;101383.59;5046165;28;20053;-62
2022/12/04 08:41:13;;;;;;;87.20;45.00;;;;;;;1.39;93.77;101383.63;5052967;28;20048;-62
2022/12/04 08:43:41;;;;;;;89.95;44.78;;;;;;;1.42;93.48;101384.44;5046282;28;20049;-62
2022/12/04 08:46:10;;;;;;;84.80;42.85;;;;;;;1.44;93.44;101382.72;5046218;28;20524;-62
2022/12/04 08:48:38;;;;;;;95.25;42.63;;;;;;;1.47;93.36;101387.88;5050282;28;20055;-64
2022/12/04 08:51:09;;;;;;;83.43;41.55;;;;;;;1.49;93.40;101377.50;5051512;28;20079;-64
2022/12/04 08:53:37;;;;;;;88.97;43.50;;;;;;;1.41;94.01;101384.47;5049524;28;20505;-63
2022/12/04 08:56:04;;;;;;;80.95;41.72;;;;;;;1.36;94.59;101376.72;5044294;28;20045;-62
2022/12/04 08:58:31;;;;;;;82.75;42.30;;;;;;;1.39;94.36;101381.88;5048633;28;20137;-63
2022/12/04 09:01:05;;;;;;;82.43;42.97;;;;;;;1.44;94.11;101372.34;5053367;28;20051;-62
2022/12/04 09:03:34;;;;;;;92.07;44.58;;;;;;;1.44;94.50;101377.53;5050965;28;20060;-61
2022/12/04 09:06:03;;;;;;;77.82;40.78;;;;;;;1.49;93.94;101375.75;5044768;28;20071;-62
2022/12/04 09:08:31;;;;;;;85.63;43.80;;;;;;;1.52;94.00;101377.44;5042602;28;20053;-64
2022/12/04 09:11:11;;;;;;;79.72;42.13;;;;;;;1.54;93.97;101370.50;5045198;28;20146;-62
2022/12/04 09:13:40;;;;;;;85.00;41.58;;;;;;;1.57;93.58;101367.00;5041634;28;20413;-63
2022/12/04 09:16:10;;;;;;;83.75;41.00;;;;;;;1.54;93.80;101364.47;5050515;28;20417;-65
2022/12/04 09:18:38;;;;;;;82.28;43.13;;;;;;;1.53;94.03;101371.38;5031531;28;20056;-63
2022/12/04 09:21:08;;;;;;;78.97;41.83;;;;;;;1.57;94.12;101375.66;5049958;28;20049;-63
2022/12/04 09:23:37;;;;;;;78.47;41.67;;;;;;;1.54;94.28;101373.09;5049067;28;20100;-63
2022/12/04 09:26:06;;;;;;;87.95;44.75;;;;;;;1.60;93.96;101375.63;5048707;28;20052;-63
2022/12/04 09:28:33;;;;;;;83.07;42.97;;;;;;;1.58;94.14;101376.53;5031056;28;20052;-62
2022/12/04 09:31:04;;;;;;;88.82;44.70;;;;;;;1.60;94.03;101380.81;5048158;28;20064;-63
2022/12/04 09:33:32;;;;;;;79.97;43.08;;;;;;;1.62;93.81;101386.00;5049090;28;20067;-63
2022/12/04 09:36:02;;;;;;;81.43;41.15;;;;;;;1.68;93.38;101388.53;5046251;28;20045;-62
2022/12/04 09:38:30;;;;;;;83.25;42.63;;;;;;;1.73;93.32;101379.81;5045196;28;20615;-63
2022/12/04 09:41:04;;;;;;;80.75;40.55;;;;;;;1.66;93.84;101379.91;5049495;28;20049;-62
2022/12/04 09:43:47;;;;;;;82.40;41.50;;;;;;;1.68;93.67;101376.41;5031260;28;20421;-63
2022/12/04 09:46:19;;;;;;;84.13;40.38;;;;;;;1.70;93.40;101379.84;5025696;28;20064;-63
2022/12/04 09:48:47;;;;;;;79.32;39.97;;;;;;;1.67;93.94;101377.31;5031104;28;20056;-62
2022/12/04 09:51:17;;;;;;;80.75;39.90;;;;;;;1.68;93.68;101368.63;5049149;28;20049;-62
2022/12/04 09:53:49;;;;;;;80.45;40.97;;;;;;;1.64;93.83;101369.53;5034758;28;20049;-62
2022/12/04 09:56:21;;;;;;;80.70;39.70;;;;;;;1.67;93.81;101371.25;5030908;28;20053;-62
2022/12/04 09:58:59;;;;;;;84.07;40.80;;;;;;;1.72;94.16;101372.06;5048958;28;20059;-62
2022/12/04 10:01:31;;;;;;;78.47;40.55;;;;;;;1.69;94.32;101362.56;5031336;28;20063;-63
2022/12/04 10:03:58;;;;;;;77.28;38.50;;;;;;;1.73;94.02;101353.88;5021005;28;20045;-61
2022/12/04 10:06:43;;;;;;;78.32;38.65;;;;;;;1.83;93.55;101356.38;5049464;28;20049;-63
2022/12/04 10:09:19;;;;;;;82.82;40.78;;;;;;;1.83;94.00;101345.97;5030450;28;20268;-64
2022/12/04 10:11:57;;;;;;;;;;;;;;;1.72;94.82;101344.38;5031482;28;20048;-62
2022/12/04 10:15:05;;;;;;;73.32;38.47;;;;;;;1.69;94.78;101344.41;5035108;28;19929;-63
2022/12/04 10:17:49;;;;;;;81.53;39.95;;;;;;;1.77;94.34;101339.13;4968319;28;20051;-62
2022/12/04 10:21:08;;;;;;;73.65;37.63;;;;;;;1.77;94.44;101344.31;5045192;28;20104;-63
2022/12/04 10:23:50;;;;;;;88.25;40.83;;;;;;;1.79;94.32;101334.75;5022664;28;20080;-62
2022/12/04 10:26:21;;;;;;;75.75;38.08;;;;;;;1.81;94.25;101340.81;5045602;28;20101;-63
2022/12/04 10:28:55;;;;;;;76.88;37.85;;;;;;;1.89;94.11;101336.41;5027417;28;20136;-62
2022/12/04 10:31:23;;;;;;;72.38;39.47;;;;;;;1.92;94.04;101331.16;5030533;28;20422;-61
2022/12/04 10:33:52;;;;;;;77.13;40.13;;;;;;;1.93;93.89;101327.66;5032654;28;20067;-61
2022/12/04 10:36:21;;;;;;;77.07;39.58;;;;;;;1.91;94.26;101318.19;5026915;28;20055;-62
2022/12/04 10:38:52;;;;;;;80.40;40.53;;;;;;;1.92;95.41;101315.56;5037243;28;20049;-63
2022/12/04 10:41:23;;;;;;;76.97;38.40;;;;;;;1.92;95.13;101319.91;5042940;28;20045;-63
2022/12/04 10:43:50;;;;;;;78.90;37.50;;;;;;;1.88;95.24;101319.06;5071395;22;20530;-65
2022/12/04 10:46:26;;;;;;;78.03;38.95;;;;;;;1.95;94.83;101315.53;5047691;28;20127;-62
2022/12/04 10:48:58;;;;;;;72.50;37.55;;;;;;;1.97;94.37;101316.38;5052617;28;20064;-62
2022/12/04 10:51:27;;;;;;;73.13;37.35;;;;;;;1.98;94.54;101318.09;5051602;28;20411;-64
2022/12/04 10:53:54;;;;;;;79.68;39.42;;;;;;;1.98;94.60;101315.50;5035615;28;20658;-64
2022/12/04 10:56:24;;;;;;;71.50;38.70;;;;;;;2.02;94.04;101313.72;5035535;28;20053;-64
2022/12/04 10:58:59;;;;;;;78.00;39.03;;;;;;;2.07;94.14;101319.69;5039740;28;20063;-64
2022/12/04 11:01:31;;;;;;;73.53;36.47;;;;;;;2.09;94.38;101311.91;5042120;28;20401;-61
2022/12/04 11:04:05;;;;;;;70.53;37.63;;;;;;;2.11;93.92;101311.00;5033363;28;20051;-64
2022/12/04 11:06:33;;;;;;;74.20;37.40;;;;;;;2.14;94.17;101317.91;5036101;28;20507;-63
2022/12/04 11:09:01;;;;;;;67.35;35.35;;;;;;;2.13;94.18;101308.41;5034577;28;20053;-62
2022/12/04 11:11:31;;;;;;;76.97;37.95;;;;;;;2.19;93.06;101309.16;5051277;28;20049;-63
2022/12/04 11:14:16;;;;;;;74.25;37.78;;;;;;;2.19;93.67;101309.16;5049216;28;20045;-62
2022/12/04 11:16:48;;;;;;;68.35;36.15;;;;;;;2.21;93.47;101303.97;5050039;28;20056;-62
2022/12/04 11:19:23;;;;;;;69.72;37.42;;;;;;;2.22;93.59;101300.47;5035313;28;20051;-65
2022/12/04 11:21:54;;;;;;;74.25;38.22;;;;;;;2.24;93.14;101301.31;5050689;28;20049;-63
2022/12/04 11:24:31;;;;;;;66.97;35.92;;;;;;;2.24;93.28;101307.34;5041127;28;20051;-63
2022/12/04 11:26:59;;;;;;;70.88;36.38;;;;;;;2.22;93.18;101303.94;5045372;28;20068;-62
2022/12/04 11:29:34;;;;;;;68.38;34.92;;;;;;;2.18;93.86;101296.22;5048680;28;20045;-62
2022/12/04 11:32:03;;;;;;;70.68;37.42;;;;;;;2.21;93.84;101294.44;5051109;28;20048;-62
2022/12/04 11:34:37;;;;;;;67.57;36.30;;;;;;;2.18;93.97;101298.81;5044846;28;20053;-61
2022/12/04 11:37:17;;;;;;;66.50;37.03;;;;;;;2.20;93.85;101302.22;5029437;28;20060;-62
2022/12/04 11:39:45;;;;;;;71.00;37.22;;;;;;;2.14;94.87;101297.13;5029777;28;20537;-62
2022/12/04 11:42:12;;;;;;;67.60;35.63;;;;;;;2.13;94.74;101298.00;5026430;28;20080;-63
2022/12/04 11:44:49;;;;;;;69.93;36.15;;;;;;;2.14;94.59;101290.19;5045531;28;20420;-63
2022/12/04 11:47:18;;;;;;;62.28;34.35;;;;;;;2.21;94.34;101297.03;5051041;28;20044;-62